Time;durP1;ratioP1;P1;durP2;ratioP2;P2;SDS_P1;SDS_P2;PMS_P1;PMS_P2;Temp;Humidity;BMP_temperature;BMP_pressure;BME280_temperature;BME280_humidity;BME280_pressure;Samples;Min_cycle;Max_cycle;Signal;HPM_P1;HPM_P2
2022/01/31 00:05:43;;;;;;;21.38;7.97;;;;;;;2.28;90.19;101032.78;20903134;28;20048;-70
2022/01/31 00:15:52;;;;;;;21.60;9.23;;;;;;;2.21;90.90;100989.56;20902946;28;20073;-70
2022/01/31 00:25:54;;;;;;;23.50;7.45;;;;;;;2.27;91.20;100962.16;20902736;28;20052;-70
2022/01/31 00:35:55;;;;;;;18.90;7.43;;;;;;;2.45;89.35;100948.00;20901587;28;20056;-71
2022/01/31 00:45:58;;;;;;;19.67;6.65;;;;;;;2.56;88.92;100936.22;20900438;28;20148;-70
2022/01/31 00:56:00;;;;;;;20.75;7.10;;;;;;;2.62;88.29;100874.31;20898158;28;20048;-70
2022/01/31 01:06:01;;;;;;;22.38;7.10;;;;;;;2.72;89.13;100834.91;20897648;28;20470;-70
2022/01/31 01:16:03;;;;;;;23.40;8.13;;;;;;;2.73;88.82;100803.06;20898955;28;20144;-70
2022/01/31 01:26:05;;;;;;;24.48;7.50;;;;;;;2.68;88.98;100740.00;20898129;28;20057;-71
2022/01/31 01:36:07;;;;;;;23.38;8.48;;;;;;;2.74;89.30;100693.63;20897732;28;20049;-70
2022/01/31 01:46:09;;;;;;;23.35;7.82;;;;;;;2.78;88.93;100668.72;20896825;28;20049;-70
2022/01/31 01:56:11;;;;;;;20.05;7.68;;;;;;;2.74;88.71;100641.91;20896369;28;20498;-70
2022/01/31 02:06:12;;;;;;;30.38;9.98;;;;;;;2.69;89.45;100635.78;20896158;28;20634;-71
2022/01/31 02:16:17;;;;;;;25.77;7.53;;;;;;;2.72;90.22;100602.22;20899090;28;20048;-71
2022/01/31 02:26:19;;;;;;;;;;;;;;;2.76;89.64;100530.75;20907916;28;20107;-71
2022/01/31 02:36:21;;;;;;;27.17;8.75;;;;;;;2.66;89.76;100503.88;20909673;28;20836;-71
2022/01/31 02:46:26;;;;;;;23.48;8.00;;;;;;;2.68;88.95;100485.78;20909578;28;20052;-71
2022/01/31 02:56:27;;;;;;;18.38;8.15;;;;;;;2.63;90.35;100454.69;20909487;28;20041;-71
2022/01/31 03:06:29;;;;;;;20.95;8.10;;;;;;;2.58;91.24;100396.88;20907104;28;20059;-69
2022/01/31 03:16:31;;;;;;;23.98;9.40;;;;;;;2.57;91.65;100415.81;20907156;28;20045;-68
2022/01/31 03:26:32;;;;;;;19.55;8.32;;;;;;;2.64;91.54;100417.69;20905357;28;20520;-68
2022/01/31 03:36:34;;;;;;;26.30;8.57;;;;;;;2.61;91.36;100389.19;20904919;28;20052;-69
2022/01/31 03:46:38;;;;;;;20.13;7.28;;;;;;;2.73;90.55;100386.81;20904502;28;20079;-68
2022/01/31 03:56:40;;;;;;;17.43;7.17;;;;;;;2.77;90.12;100362.72;20903832;28;20036;-69
2022/01/31 04:06:42;;;;;;;20.30;7.13;;;;;;;2.82;90.06;100339.53;20895541;23;20365;-71
2022/01/31 04:16:44;;;;;;;23.35;7.22;;;;;;;2.79;91.07;100330.03;20864165;28;20532;-70
2022/01/31 04:26:55;;;;;;;21.05;6.80;;;;;;;2.86;90.63;100268.03;20862715;28;20130;-70
2022/01/31 04:36:58;;;;;;;20.02;6.55;;;;;;;2.92;90.62;100234.50;20859076;28;20049;-69
2022/01/31 04:47:00;;;;;;;17.00;6.60;;;;;;;3.02;90.49;100195.00;20860656;28;20052;-69
2022/01/31 04:57:02;;;;;;;18.70;6.70;;;;;;;3.01;90.94;100154.44;20858661;28;20057;-69
2022/01/31 05:07:03;;;;;;;22.55;6.80;;;;;;;3.20;90.04;100104.63;20857357;28;20053;-68
2022/01/31 05:17:05;;;;;;;21.42;5.57;;;;;;;3.30;90.44;100074.53;20859477;28;20048;-68
2022/01/31 05:27:06;;;;;;;15.00;5.22;;;;;;;3.44;90.36;100046.16;20858299;28;20053;-68
2022/01/31 05:37:08;;;;;;;28.23;10.63;;;;;;;3.41;93.82;100043.59;20857498;28;20049;-68
2022/01/31 05:47:09;;;;;;;17.17;5.85;;;;;;;3.45;96.61;100022.00;20856242;28;20060;-67
2022/01/31 05:57:11;;;;;;;21.42;6.93;;;;;;;3.39;100.00;100037.50;20869230;28;20048;-67
2022/01/31 06:07:12;;;;;;;19.05;6.63;;;;;;;3.28;100.00;100038.28;20869778;28;20045;-67
2022/01/31 06:17:14;;;;;;;19.83;6.75;;;;;;;3.14;100.00;100052.84;20871942;28;20049;-67
2022/01/31 06:27:16;;;;;;;17.70;6.75;;;;;;;3.21;100.00;100049.47;20872127;28;20049;-68
2022/01/31 06:37:18;;;;;;;21.98;7.45;;;;;;;3.22;100.00;100033.09;20871211;28;20053;-68
2022/01/31 06:47:21;;;;;;;20.15;6.05;;;;;;;3.27;100.00;100033.97;20870225;28;20056;-68
2022/01/31 06:57:24;;;;;;;15.90;5.63;;;;;;;3.30;100.00;100041.75;20867500;28;20107;-68
2022/01/31 07:07:27;;;;;;;14.30;4.40;;;;;;;3.42;100.00;100051.34;20865460;28;20049;-68
2022/01/31 07:17:30;;;;;;;14.40;3.95;;;;;;;3.60;100.00;100051.47;20866222;28;20077;-68
2022/01/31 07:27:32;;;;;;;9.57;3.35;;;;;;;3.59;100.00;100051.44;20862091;28;20143;-69
2022/01/31 07:37:35;;;;;;;10.40;3.15;;;;;;;3.70;100.00;100049.81;20863347;28;20072;-68
2022/01/31 07:47:40;;;;;;;4.22;2.03;;;;;;;3.71;100.00;100055.84;20862171;28;20064;-68
2022/01/31 07:57:43;;;;;;;7.25;2.80;;;;;;;3.70;100.00;100062.75;20841313;28;20062;-69
2022/01/31 08:07:45;;;;;;;8.57;2.83;;;;;;;3.77;100.00;100059.34;20793499;28;20651;-69
2022/01/31 08:17:47;;;;;;;6.43;2.45;;;;;;;3.97;100.00;100043.91;20791946;28;20049;-69
2022/01/31 08:27:52;;;;;;;9.32;2.38;;;;;;;4.09;100.00;100043.13;20788410;28;20050;-69
2022/01/31 08:37:54;;;;;;;15.95;6.97;;;;;;;4.33;100.00;100021.63;20840862;28;20126;-69
2022/01/31 08:47:56;;;;;;;8.25;2.97;;;;;;;4.48;100.00;100011.31;20850920;28;20107;-69
2022/01/31 08:57:58;;;;;;;4.82;2.00;;;;;;;4.50;100.00;99998.34;20831631;28;20542;-69
2022/01/31 09:07:59;;;;;;;4.45;1.90;;;;;;;4.69;100.00;99996.66;20851972;28;20048;-69
2022/01/31 09:18:01;;;;;;;5.82;2.35;;;;;;;4.88;99.65;99991.47;20849997;28;20045;-69
2022/01/31 09:28:03;;;;;;;8.60;2.28;;;;;;;5.01;96.57;99996.69;20864484;28;20048;-70
2022/01/31 09:38:05;;;;;;;7.05;2.20;;;;;;;5.17;93.81;99993.22;20875124;28;20041;-70
2022/01/31 09:58:08;;;;;;;10.38;2.60;;;;;;;5.54;90.53;99972.41;20874934;28;20407;-70
2022/01/31 10:08:13;;;;;;;7.22;2.20;;;;;;;5.58;90.09;99968.94;20874591;28;20111;-70
2022/01/31 10:18:14;;;;;;;9.40;2.03;;;;;;;5.81;87.24;99972.34;20869262;28;20041;-70
2022/01/31 10:28:40;;;;;;;6.50;1.92;;;;;;;5.90;83.19;99987.91;20873913;28;20060;-71
2022/01/31 10:38:43;;;;;;;7.82;1.75;;;;;;;5.95;81.10;99989.66;20867532;28;20051;-70
2022/01/31 10:59:09;;;;;;;5.60;1.70;;;;;;;6.25;79.57;99979.13;20859737;28;20096;-70
2022/01/31 11:09:13;;;;;;;7.40;1.30;;;;;;;6.09;77.98;99980.06;20854601;28;20484;-71
2022/01/31 11:19:21;;;;;;;5.93;1.35;;;;;;;6.12;76.20;99983.50;20856924;28;20045;-71
2022/01/31 11:29:23;;;;;;;5.35;2.10;;;;;;;6.15;75.36;99983.50;20860252;28;20126;-71
2022/01/31 11:39:25;;;;;;;7.85;1.52;;;;;;;6.13;74.87;99984.34;20847159;28;20462;-71
2022/01/31 11:49:42;;;;;;;5.30;1.50;;;;;;;6.02;75.67;99976.63;20843801;28;20052;-72
2022/01/31 11:59:44;;;;;;;7.30;1.60;;;;;;;6.17;72.71;99966.16;20854029;28;20503;-72
2022/01/31 12:09:54;;;;;;;5.80;1.58;;;;;;;6.24;72.27;99971.34;20853471;28;20057;-71
2022/01/31 12:20:03;;;;;;;6.05;1.38;;;;;;;6.18;73.51;99980.03;20851193;28;20421;-69
2022/01/31 12:30:05;;;;;;;5.97;1.60;;;;;;;6.28;75.37;99953.13;20833934;28;20060;-73
2022/01/31 12:40:19;;;;;;;7.20;1.33;;;;;;;6.46;72.53;99935.66;20852591;28;20502;-75
2022/01/31 12:50:23;;;;;;;4.93;1.35;;;;;;;6.47;71.87;99922.66;20854625;28;20060;-72
2022/01/31 13:00:54;;;;;;;4.30;1.15;;;;;;;6.57;71.63;99915.66;20849485;28;20042;-73
2022/01/31 13:11:14;;;;;;;5.00;1.20;;;;;;;6.51;70.00;99929.53;20839570;28;20413;-74
2022/01/31 13:21:17;;;;;;;5.90;1.27;;;;;;;6.78;67.78;99925.91;20847801;28;20522;-72
2022/01/31 13:31:18;;;;;;;5.38;1.17;;;;;;;6.88;66.92;99909.31;20845249;28;20046;-71
2022/01/31 13:41:23;;;;;;;7.38;1.40;;;;;;;7.03;66.71;99910.06;20840969;28;20079;-74
2022/01/31 13:51:50;;;;;;;6.15;1.58;;;;;;;6.94;67.56;99914.47;20847821;28;20053;-74
2022/01/31 14:02:11;;;;;;;5.65;1.20;;;;;;;6.84;66.71;99936.25;20843874;28;20056;-73
2022/01/31 14:12:14;;;;;;;6.05;1.55;;;;;;;6.68;67.58;99924.25;20848986;28;20037;-72
2022/01/31 14:22:17;;;;;;;4.80;1.10;;;;;;;6.69;68.74;99950.22;20861989;28;20108;-73
2022/01/31 14:32:18;;;;;;;11.80;2.70;;;;;;;6.60;69.66;99962.44;20860535;28;20045;-73
2022/01/31 14:52:40;;;;;;;6.60;1.02;;;;;;;6.19;71.67;99960.09;20857096;28;20041;-73
2022/01/31 15:02:42;;;;;;;8.45;1.42;;;;;;;6.08;70.61;99983.53;20856461;28;20045;-72
2022/01/31 15:12:45;;;;;;;5.28;1.40;;;;;;;6.08;71.88;99999.13;20857897;28;20369;-72
2022/01/31 15:22:50;;;;;;;7.05;1.70;;;;;;;5.95;73.91;100015.66;20856767;28;20056;-73
2022/01/31 15:32:52;;;;;;;8.98;1.73;;;;;;;5.65;74.66;100053.75;20849803;28;20091;-72
2022/01/31 15:42:54;;;;;;;9.02;1.63;;;;;;;5.66;75.04;100056.38;20850016;28;20049;-74
2022/01/31 15:52:55;;;;;;;4.28;1.00;;;;;;;5.57;76.02;100071.97;20856001;28;20376;-73
2022/01/31 16:03:00;;;;;;;8.80;1.80;;;;;;;5.49;74.47;100076.28;20852144;28;20057;-73
2022/01/31 16:13:04;;;;;;;7.53;1.33;;;;;;;5.51;74.06;100078.88;20855501;28;20501;-73
2022/01/31 16:23:06;;;;;;;8.73;1.55;;;;;;;5.44;75.39;100092.72;20853611;28;20048;-72
2022/01/31 16:33:07;;;;;;;8.50;1.80;;;;;;;5.49;74.71;100114.38;20850893;28;20506;-71
2022/01/31 16:43:10;;;;;;;10.35;1.55;;;;;;;5.49;74.19;100109.19;20850908;28;20088;-72
2022/01/31 16:53:12;;;;;;;6.97;1.40;;;;;;;5.48;72.54;100123.91;20851196;28;20053;-71
2022/01/31 17:03:13;;;;;;;6.78;1.20;;;;;;;5.39;73.85;100142.91;20831865;28;20510;-70
2022/01/31 17:13:18;;;;;;;8.73;1.30;;;;;;;5.48;72.46;100152.47;20848496;28;20144;-70
2022/01/31 17:23:19;;;;;;;4.77;1.20;;;;;;;5.50;71.40;100147.25;20848945;28;20418;-70
2022/01/31 17:33:21;;;;;;;7.47;1.30;;;;;;;5.51;71.12;100159.38;20847058;28;20469;-72
2022/01/31 17:43:24;;;;;;;6.68;1.35;;;;;;;5.52;70.32;100184.50;20848106;28;20171;-71
2022/01/31 17:53:25;;;;;;;3.65;1.20;;;;;;;5.47;71.05;100194.00;20863628;28;20040;-71
2022/01/31 18:03:27;;;;;;;7.57;1.25;;;;;;;5.43;71.46;100213.03;20859354;28;20495;-71
2022/01/31 18:13:29;;;;;;;11.93;1.85;;;;;;;5.32;73.50;100211.28;20863111;28;20479;-68
2022/01/31 18:23:30;;;;;;;8.77;1.40;;;;;;;5.21;73.95;100233.72;20862712;28;20510;-68
2022/01/31 18:33:37;;;;;;;5.20;1.35;;;;;;;5.17;74.84;100229.38;20862416;28;20490;-69
2022/01/31 18:43:38;;;;;;;7.68;1.27;;;;;;;5.11;75.62;100253.59;20845492;28;20053;-70
2022/01/31 18:53:40;;;;;;;6.78;1.40;;;;;;;5.01;77.92;100263.94;20858172;28;20085;-69
2022/01/31 19:03:42;;;;;;;6.75;1.08;;;;;;;4.97;78.46;100259.59;20856670;28;20461;-69
2022/01/31 19:23:46;;;;;;;5.30;1.08;;;;;;;4.74;81.95;100309.59;20857292;28;20481;-70
2022/01/31 19:33:47;;;;;;;5.40;1.20;;;;;;;4.75;83.52;100320.88;20856217;28;20498;-68
2022/01/31 19:43:50;;;;;;;7.97;1.27;;;;;;;4.53;86.18;100350.94;20856940;28;20049;-68
2022/01/31 19:53:56;;;;;;;9.85;1.50;;;;;;;4.54;86.05;100339.72;20854938;28;20135;-69
2022/01/31 20:03:57;;;;;;;7.40;1.70;;;;;;;4.45;87.56;100368.16;20850249;28;20258;-68
2022/01/31 20:13:59;;;;;;;5.03;1.40;;;;;;;4.41;89.11;100394.91;20842962;28;20488;-68
2022/01/31 20:24:03;;;;;;;4.10;1.50;;;;;;;4.40;89.37;100407.00;20818501;28;20080;-68
2022/01/31 20:34:05;;;;;;;4.57;1.40;;;;;;;4.30;89.80;100406.03;20815262;28;20498;-68
2022/01/31 20:44:13;;;;;;;4.00;1.05;;;;;;;4.36;89.69;100423.41;20818648;28;20042;-68
2022/01/31 20:54:14;;;;;;;8.88;1.35;;;;;;;4.28;91.57;100435.41;20820162;28;20057;-68
2022/01/31 21:04:16;;;;;;;4.78;1.17;;;;;;;4.27;92.04;100462.19;20812682;28;20250;-71
2022/01/31 21:14:21;;;;;;;6.90;1.23;;;;;;;4.25;92.37;100454.38;20825503;28;20042;-66
2022/01/31 21:24:22;;;;;;;;;;;;;;;4.23;92.09;100468.19;20848875;28;20046;-66
2022/01/31 21:34:24;;;;;;;4.90;1.20;;;;;;;4.24;91.93;100482.88;20847729;28;19921;-66
2022/01/31 21:44:25;;;;;;;4.15;1.27;;;;;;;4.26;91.79;100500.16;20848259;28;20482;-66
2022/01/31 21:54:27;;;;;;;6.50;1.25;;;;;;;4.44;91.06;100547.91;20848984;28;20186;-66
2022/01/31 22:04:29;;;;;;;7.60;2.13;;;;;;;4.43;90.74;100548.75;20847007;28;20414;-66
2022/01/31 22:14:32;;;;;;;4.97;1.20;;;;;;;4.51;89.48;100562.69;20845992;28;20483;-66
2022/01/31 22:24:34;;;;;;;5.35;1.05;;;;;;;4.53;91.60;100573.94;20848076;28;20520;-66
2022/01/31 22:34:35;;;;;;;5.57;1.30;;;;;;;4.43;91.87;100593.69;20853260;28;20041;-66
2022/01/31 22:44:37;;;;;;;6.13;1.50;;;;;;;4.48;91.65;100607.59;20861931;28;20045;-66
2022/01/31 22:54:38;;;;;;;4.68;1.20;;;;;;;4.53;91.17;100615.44;20856666;28;20049;-66
2022/01/31 23:04:40;;;;;;;6.32;1.05;;;;;;;4.52;90.40;100631.84;20859772;28;20096;-66
2022/01/31 23:14:52;;;;;;;6.40;1.25;;;;;;;4.59;90.31;100660.44;20866982;28;20065;-67
2022/01/31 23:56:27;;;;;;;5.82;1.10;;;;;;;4.78;84.42;100677.09;20859873;28;20137;-66
